Time;durP1;ratioP1;P1;durP2;ratioP2;P2;SDS_P1;SDS_P2;PMS_P1;PMS_P2;Temp;Humidity;BMP_temperature;BMP_pressure;BME280_temperature;BME280_humidity;BME280_pressure;Samples;Min_cycle;Max_cycle;Signal;HPM_P1;HPM_P2
2021/08/11 00:01:27;;;;;;;6.20;4.07;;;24.90;99.90;;;;;;5011621;28;20435;-70
2021/08/11 00:03:52;;;;;;;8.15;5.00;;;25.00;99.90;;;;;;5012863;28;20030;-70
2021/08/11 00:06:19;;;;;;;9.18;5.18;;;25.00;99.90;;;;;;5012335;28;20018;-70
2021/08/11 00:08:45;;;;;;;6.63;4.28;;;25.00;99.90;;;;;;5013093;28;20033;-70
2021/08/11 00:11:11;;;;;;;5.00;4.45;;;24.90;99.90;;;;;;5011164;28;20021;-70
2021/08/11 00:13:37;;;;;;;5.78;4.10;;;24.90;99.90;;;;;;5011660;28;20368;-70
2021/08/11 00:16:03;;;;;;;5.00;4.28;;;24.80;99.90;;;;;;5012702;28;20095;-71
2021/08/11 00:18:29;;;;;;;5.95;4.43;;;24.70;99.90;;;;;;5011400;28;20026;-72
2021/08/11 00:20:54;;;;;;;5.70;4.68;;;24.70;99.90;;;;;;5012908;28;20037;-71
2021/08/11 00:23:23;;;;;;;11.38;5.00;;;24.80;99.90;;;;;;5013532;28;20026;-72
2021/08/11 00:25:52;;;;;;;8.55;3.92;;;24.70;99.90;;;;;;5015672;28;20566;-72
2021/08/11 00:28:18;;;;;;;7.20;4.60;;;24.60;99.90;;;;;;5014159;28;20380;-70
2021/08/11 00:30:43;;;;;;;5.65;4.90;;;24.60;99.90;;;;;;5014538;28;20134;-71
2021/08/11 00:33:09;;;;;;;8.63;5.05;;;24.70;99.90;;;;;;5013250;28;20029;-71
2021/08/11 00:35:35;;;;;;;4.82;4.43;;;24.70;99.90;;;;;;5013127;28;20437;-71
2021/08/11 00:38:01;;;;;;;10.85;4.78;;;24.80;99.90;;;;;;5013942;28;20022;-71
2021/08/11 00:40:28;;;;;;;5.80;4.75;;;24.70;99.90;;;;;;5013857;28;20049;-70
2021/08/11 00:42:56;;;;;;;6.25;4.82;;;24.60;99.90;;;;;;5013214;28;20029;-71
2021/08/11 00:45:22;;;;;;;6.85;3.95;;;24.50;99.90;;;;;;5012521;28;20111;-71
2021/08/11 00:47:50;;;;;;;7.63;5.10;;;24.50;99.90;;;;;;5013481;28;20057;-71
2021/08/11 00:50:17;;;;;;;8.88;4.72;;;24.70;99.90;;;;;;5014466;28;20035;-71
2021/08/11 00:52:43;;;;;;;5.50;4.03;;;24.60;99.90;;;;;;5013070;28;20495;-71
2021/08/11 00:55:10;;;;;;;5.07;4.30;;;24.60;99.90;;;;;;5014380;28;20045;-71
2021/08/11 00:57:37;;;;;;;5.82;3.50;;;24.80;99.90;;;;;;5011907;28;20029;-71
2021/08/11 01:00:04;;;;;;;7.00;4.85;;;24.80;99.90;;;;;;5014169;28;20022;-71
2021/08/11 01:02:32;;;;;;;12.60;5.00;;;24.60;99.90;;;;;;5012416;28;20033;-71
2021/08/11 01:05:00;;;;;;;9.88;4.65;;;24.60;99.90;;;;;;5012438;28;20025;-69
2021/08/11 01:07:27;;;;;;;8.98;4.80;;;24.50;99.90;;;;;;5012467;28;20088;-68
2021/08/11 01:09:54;;;;;;;7.82;4.75;;;24.40;99.90;;;;;;5010108;28;20132;-70
2021/08/11 01:12:25;;;;;;;8.80;4.15;;;24.40;99.90;;;;;;5012370;28;20327;-70
2021/08/11 01:14:55;;;;;;;7.85;4.63;;;24.30;99.90;;;;;;5011748;28;20040;-70
2021/08/11 01:17:25;;;;;;;8.80;4.65;;;24.50;99.90;;;;;;5010911;28;20030;-69
2021/08/11 01:19:51;;;;;;;8.18;4.30;;;24.50;99.90;;;;;;5010327;28;20040;-70
2021/08/11 01:22:26;;;;;;;3.53;3.22;;;24.60;99.90;;;;;;5011747;28;20232;-71
2021/08/11 01:25:10;;;;;;;13.55;4.85;;;24.60;99.90;;;;;;5010868;28;20042;-71
2021/08/11 01:27:56;;;;;;;9.05;4.85;;;24.60;99.90;;;;;;5010541;28;20050;-68
2021/08/11 01:30:33;;;;;;;8.05;4.35;;;24.60;99.90;;;;;;5011475;28;20025;-71
2021/08/11 01:32:59;;;;;;;8.45;4.57;;;24.60;99.90;;;;;;5014021;28;20087;-69
2021/08/11 01:35:35;;;;;;;6.30;3.92;;;24.50;99.90;;;;;;5011944;28;20037;-72
2021/08/11 01:38:02;;;;;;;7.75;4.88;;;24.40;99.90;;;;;;5009840;28;20033;-71
2021/08/11 01:40:30;;;;;;;5.93;4.28;;;24.20;99.90;;;;;;5012229;28;20403;-69
2021/08/11 01:42:59;;;;;;;6.20;4.43;;;24.10;99.90;;;;;;5011262;28;20488;-69
2021/08/11 01:45:30;;;;;;;6.72;4.75;;;24.10;99.90;;;;;;5009904;28;20030;-69
2021/08/11 01:48:06;;;;;;;6.07;4.60;;;24.30;99.90;;;;;;5009653;28;20105;-68
2021/08/11 01:50:37;;;;;;;8.98;4.80;;;24.50;99.90;;;;;;5009649;28;20037;-69
2021/08/11 01:53:06;;;;;;;4.68;4.20;;;24.60;99.90;;;;;;5010294;28;20022;-70
2021/08/11 01:55:33;;;;;;;6.93;4.32;;;24.70;99.90;;;;;;5010413;28;20026;-71
2021/08/11 01:57:59;;;;;;;8.88;4.85;;;24.70;99.90;;;;;;5011726;28;20030;-70
2021/08/11 02:00:25;;;;;;;6.15;5.47;;;24.50;99.90;;;;;;5009768;28;20427;-70
2021/08/11 02:02:53;;;;;;;5.07;4.68;;;24.50;99.90;;;;;;5010853;28;20152;-69
2021/08/11 02:05:21;;;;;;;9.65;5.72;;;24.70;99.90;;;;;;5008692;28;20026;-68
2021/08/11 02:07:48;;;;;;;8.90;4.45;;;24.80;99.90;;;;;;5010005;28;20133;-69
2021/08/11 02:10:15;;;;;;;10.35;5.57;;;24.70;99.90;;;;;;5010209;28;20018;-68
2021/08/11 02:12:41;;;;;;;4.90;4.30;;;24.80;99.90;;;;;;5010058;28;20034;-69
2021/08/11 02:15:09;;;;;;;6.20;4.57;;;24.90;99.90;;;;;;5010019;28;20026;-69
2021/08/11 02:17:39;;;;;;;10.23;4.97;;;24.70;99.90;;;;;;5010094;28;20022;-69
2021/08/11 02:20:06;;;;;;;7.22;4.93;;;24.50;99.90;;;;;;5010380;28;20109;-69
2021/08/11 02:22:32;;;;;;;8.23;5.15;;;24.30;99.90;;;;;;5008758;28;20032;-69
2021/08/11 02:24:58;;;;;;;7.45;5.68;;;24.20;99.90;;;;;;5008699;28;20029;-69
2021/08/11 02:27:32;;;;;;;13.50;5.43;;;24.10;99.90;;;;;;5009986;28;20026;-69
2021/08/11 02:30:14;;;;;;;5.57;4.88;;;24.10;99.90;;;;;;5008943;28;20022;-69
2021/08/11 02:33:01;;;;;;;5.78;4.70;;;24.20;99.90;;;;;;5009986;28;20026;-69
2021/08/11 02:35:32;;;;;;;6.90;5.22;;;24.40;99.90;;;;;;5011142;28;20088;-69
2021/08/11 02:38:20;;;;;;;5.60;5.05;;;24.50;99.90;;;;;;5010379;28;20042;-70
2021/08/11 02:41:00;;;;;;;6.75;4.82;;;24.40;99.90;;;;;;5010827;28;20030;-70
2021/08/11 02:43:40;;;;;;;7.40;5.38;;;24.20;99.90;;;;;;5008888;28;20022;-70
2021/08/11 02:46:10;;;;;;;5.70;4.35;;;24.10;99.90;;;;;;5010664;28;20018;-69
2021/08/11 02:48:37;;;;;;;9.63;5.70;;;24.10;99.90;;;;;;5010012;28;20584;-70
2021/08/11 02:51:05;;;;;;;8.75;5.03;;;24.00;99.90;;;;;;5008705;28;20030;-69
2021/08/11 02:53:33;;;;;;;13.93;4.70;;;23.80;99.90;;;;;;5008712;28;20453;-69
2021/08/11 02:56:00;;;;;;;7.53;4.60;;;23.70;99.90;;;;;;5008889;28;20056;-69
2021/08/11 02:58:26;;;;;;;6.20;4.68;;;23.60;99.90;;;;;;5008813;28;20064;-69
2021/08/11 03:00:53;;;;;;;4.22;3.92;;;23.70;99.90;;;;;;5008570;28;20033;-68
2021/08/11 03:03:20;;;;;;;9.88;4.80;;;23.90;99.90;;;;;;5010036;28;20041;-69
2021/08/11 03:05:46;;;;;;;10.68;5.35;;;24.10;99.90;;;;;;5008429;28;20022;-69
2021/08/11 03:08:12;;;;;;;9.23;4.95;;;24.20;99.90;;;;;;5008294;28;20030;-69
2021/08/11 03:10:38;;;;;;;7.70;4.85;;;24.30;99.90;;;;;;5011817;28;20103;-69
2021/08/11 03:13:06;;;;;;;7.00;4.63;;;24.30;99.90;;;;;;5013274;28;20105;-69
2021/08/11 03:15:33;;;;;;;10.15;4.80;;;24.50;99.90;;;;;;5011893;28;20117;-69
2021/08/11 03:17:59;;;;;;;6.60;5.10;;;24.40;99.90;;;;;;5013109;28;20018;-69
2021/08/11 03:20:24;;;;;;;6.43;4.97;;;24.20;99.90;;;;;;5013051;28;20045;-69
2021/08/11 03:22:50;;;;;;;6.18;5.07;;;24.20;99.90;;;;;;5013263;28;20065;-69
2021/08/11 03:25:16;;;;;;;5.75;3.92;;;24.20;99.90;;;;;;5011596;28;20022;-69
2021/08/11 03:27:42;;;;;;;6.55;4.68;;;24.30;99.90;;;;;;5013008;28;20134;-69
2021/08/11 03:30:08;;;;;;;6.10;4.75;;;24.40;99.90;;;;;;5011657;28;20018;-69
2021/08/11 03:32:34;;;;;;;6.80;5.20;;;24.30;99.90;;;;;;5011545;28;20018;-69
2021/08/11 03:35:00;;;;;;;6.07;5.50;;;24.30;99.90;;;;;;5011382;28;20506;-69
2021/08/11 03:37:25;;;;;;;9.40;5.43;;;24.20;99.90;;;;;;5011343;28;20535;-69
2021/08/11 03:39:51;;;;;;;5.43;4.93;;;24.30;99.90;;;;;;5012574;28;20025;-69
2021/08/11 03:42:17;;;;;;;9.77;5.60;;;24.30;99.90;;;;;;5012522;28;20420;-69
2021/08/11 03:44:43;;;;;;;4.97;4.18;;;24.40;99.90;;;;;;5011376;28;20034;-69
2021/08/11 03:47:08;;;;;;;9.38;5.30;;;24.30;99.90;;;;;;5012606;28;20033;-69
2021/08/11 03:49:34;;;;;;;7.65;5.32;;;24.10;99.90;;;;;;5012481;28;20022;-69
2021/08/11 03:52:00;;;;;;;8.68;5.95;;;23.90;99.90;;;;;;5011155;28;20022;-69
2021/08/11 03:54:26;;;;;;;6.00;5.50;;;23.80;99.90;;;;;;5012405;28;20042;-69
2021/08/11 03:56:51;;;;;;;6.07;5.45;;;23.70;99.90;;;;;;5012549;28;20101;-68
2021/08/11 03:59:17;;;;;;;6.70;5.55;;;23.80;99.90;;;;;;5010910;28;20036;-69
2021/08/11 04:01:43;;;;;;;11.27;6.10;;;23.90;99.90;;;;;;5012414;28;20084;-70
2021/08/11 04:04:09;;;;;;;8.10;5.95;;;23.90;99.90;;;;;;5012571;28;20030;-70
2021/08/11 04:06:35;;;;;;;7.97;5.90;;;23.90;99.90;;;;;;5012274;28;20087;-69
2021/08/11 04:09:00;;;;;;;6.68;5.30;;;24.00;99.90;;;;;;5012395;28;20084;-68
2021/08/11 04:11:26;;;;;;;6.70;5.57;;;24.20;99.90;;;;;;5011345;28;20045;-69
2021/08/11 04:13:52;;;;;;;9.93;5.40;;;24.30;99.90;;;;;;5012963;28;20400;-70
2021/08/11 04:16:18;;;;;;;4.93;4.45;;;24.50;99.90;;;;;;5011407;28;20022;-70
2021/08/11 04:18:44;;;;;;;7.40;4.95;;;24.50;99.90;;;;;;5013008;28;20033;-69
2021/08/11 04:21:09;;;;;;;5.93;5.32;;;24.60;99.90;;;;;;5011832;28;20034;-70
2021/08/11 04:23:35;;;;;;;6.63;5.13;;;24.30;99.90;;;;;;5010508;28;20392;-69
2021/08/11 04:26:01;;;;;;;7.03;5.35;;;24.20;99.90;;;;;;5012614;28;20017;-70
2021/08/11 04:28:27;;;;;;;9.48;5.53;;;24.20;99.90;;;;;;5012399;28;20028;-69
2021/08/11 04:30:52;;;;;;;10.15;5.60;;;24.10;99.90;;;;;;5012157;28;20439;-69
2021/08/11 04:33:18;;;;;;;8.40;5.53;;;24.20;99.90;;;;;;5010759;28;20022;-69
2021/08/11 04:35:44;;;;;;;8.95;5.72;;;24.10;99.90;;;;;;5012083;28;20037;-69
2021/08/11 04:38:11;;;;;;;10.10;5.93;;;24.40;99.90;;;;;;5012262;28;20055;-69
2021/08/11 04:40:37;;;;;;;6.78;5.10;;;24.40;99.90;;;;;;5011772;28;20072;-69
2021/08/11 04:43:04;;;;;;;5.95;5.45;;;24.50;99.90;;;;;;5011483;28;20104;-70
2021/08/11 04:45:31;;;;;;;7.60;5.38;;;24.60;99.90;;;;;;5010557;28;20091;-69
2021/08/11 04:47:57;;;;;;;12.52;5.68;;;24.60;99.90;;;;;;5011451;28;20125;-69
2021/08/11 04:50:23;;;;;;;9.95;5.93;;;24.60;99.90;;;;;;5011360;28;20077;-68
2021/08/11 04:52:48;;;;;;;9.52;6.00;;;24.70;99.90;;;;;;5011433;28;20022;-68
2021/08/11 04:55:14;;;;;;;10.25;6.18;;;24.60;99.90;;;;;;5011982;28;20063;-68
2021/08/11 04:57:40;;;;;;;7.90;5.15;;;24.60;99.90;;;;;;5012073;28;20064;-69
2021/08/11 05:00:07;;;;;;;10.32;5.90;;;24.70;99.90;;;;;;5011162;28;20074;-69
2021/08/11 05:02:33;;;;;;;7.97;5.72;;;24.70;99.90;;;;;;5010338;28;20022;-69
2021/08/11 05:04:59;;;;;;;6.10;5.38;;;24.70;99.90;;;;;;5011656;28;20153;-69
2021/08/11 05:07:26;;;;;;;11.20;5.93;;;24.60;99.90;;;;;;5010471;28;20072;-70
2021/08/11 05:09:52;;;;;;;9.80;6.03;;;24.50;99.90;;;;;;5011486;28;20026;-69
2021/08/11 05:12:18;;;;;;;7.03;5.63;;;24.40;99.90;;;;;;5021864;28;20469;-70
2021/08/11 05:14:44;;;;;;;5.28;4.82;;;24.50;99.90;;;;;;5013196;28;20100;-70
2021/08/11 05:17:10;;;;;;;6.18;5.57;;;24.60;99.90;;;;;;5027720;28;20052;-70
2021/08/11 05:19:36;;;;;;;10.52;5.72;;;24.80;99.90;;;;;;5019872;28;20029;-70
2021/08/11 05:22:02;;;;;;;8.35;6.07;;;24.80;99.90;;;;;;5029341;28;20052;-69
2021/08/11 05:24:28;;;;;;;12.77;7.05;;;25.00;99.90;;;;;;5030388;28;20037;-70
2021/08/11 05:26:53;;;;;;;11.25;5.75;;;25.10;99.90;;;;;;5029259;28;20123;-70
2021/08/11 05:29:20;;;;;;;12.02;7.55;;;25.00;99.90;;;;;;5013952;28;20026;-70
2021/08/11 05:31:46;;;;;;;10.52;6.82;;;25.10;99.90;;;;;;5010470;28;20095;-70
2021/08/11 05:34:12;;;;;;;12.77;6.65;;;25.10;99.90;;;;;;5009388;28;20045;-69
2021/08/11 05:36:37;;;;;;;8.13;6.30;;;25.10;99.90;;;;;;5019104;28;20456;-69
2021/08/11 05:39:04;;;;;;;7.97;6.93;;;25.10;99.90;;;;;;5028847;28;20443;-69
2021/08/11 05:41:30;;;;;;;8.52;7.13;;;25.10;99.90;;;;;;5028863;28;20029;-69
2021/08/11 05:43:55;;;;;;;11.05;6.85;;;25.20;99.90;;;;;;5029019;28;20167;-68
2021/08/11 05:46:21;;;;;;;10.48;6.80;;;25.20;99.90;;;;;;5030707;28;20103;-70
2021/08/11 05:48:47;;;;;;;8.82;6.85;;;25.20;99.90;;;;;;5029529;28;20436;-70
2021/08/11 05:51:13;;;;;;;12.55;7.32;;;25.30;99.90;;;;;;5029081;28;20087;-70
2021/08/11 05:53:40;;;;;;;9.68;7.47;;;25.30;99.90;;;;;;5030259;28;20018;-70
2021/08/11 05:56:06;;;;;;;19.38;7.45;;;25.40;99.90;;;;;;5030101;28;20041;-70
2021/08/11 05:58:32;;;;;;;9.65;7.60;;;25.50;99.90;;;;;;5030210;28;20455;-70
2021/08/11 06:00:58;;;;;;;12.43;6.45;;;25.60;99.90;;;;;;5030064;28;20056;-70
2021/08/11 06:03:24;;;;;;;12.52;7.28;;;25.70;99.90;;;;;;5028514;28;20112;-69
2021/08/11 06:05:50;;;;;;;10.77;7.05;;;25.80;99.90;;;;;;5012562;28;20112;-70
2021/08/11 06:08:16;;;;;;;10.10;6.50;;;26.00;99.90;;;;;;5010330;28;20018;-70
2021/08/11 06:10:42;;;;;;;14.90;6.43;;;26.30;99.90;;;;;;5010193;28;20076;-70
2021/08/11 06:13:07;;;;;;;7.68;6.82;;;26.40;99.90;;;;;;5010354;28;20101;-69
2021/08/11 06:15:33;;;;;;;7.80;6.60;;;26.50;99.90;;;;;;5010275;28;20515;-69
2021/08/11 06:17:59;;;;;;;7.95;6.32;;;26.60;99.90;;;;;;5008698;28;20038;-69
2021/08/11 06:20:25;;;;;;;12.45;6.45;;;26.70;99.90;;;;;;5008776;28;20084;-69
2021/08/11 06:22:51;;;;;;;10.15;6.78;;;26.70;99.90;;;;;;5009884;28;20026;-69
2021/08/11 06:25:17;;;;;;;18.10;8.40;;;26.80;99.90;;;;;;5008448;28;20030;-71
2021/08/11 06:27:43;;;;;;;10.43;6.72;;;26.90;99.90;;;;;;5009688;28;20072;-69
2021/08/11 06:30:10;;;;;;;13.85;6.95;;;27.00;99.90;;;;;;5008691;28;20034;-69
2021/08/11 06:32:36;;;;;;;11.40;6.50;;;27.00;99.90;;;;;;5008970;28;20023;-69
2021/08/11 06:35:03;;;;;;;13.27;7.55;;;27.00;99.90;;;;;;5008954;28;20076;-69
2021/08/11 06:37:29;;;;;;;8.85;6.78;;;27.10;99.90;;;;;;5008493;28;20045;-69
2021/08/11 06:39:54;;;;;;;12.10;8.07;;;27.10;99.90;;;;;;5008974;28;20022;-68
2021/08/11 06:42:20;;;;;;;12.23;7.80;;;27.20;99.90;;;;;;5009789;28;20061;-69
2021/08/11 06:44:46;;;;;;;8.48;6.28;;;27.30;99.90;;;;;;5009034;28;20026;-70
2021/08/11 06:47:12;;;;;;;21.38;8.85;;;27.30;99.90;;;;;;5014241;28;20044;-69
2021/08/11 06:49:38;;;;;;;8.77;7.78;;;27.30;99.90;;;;;;5024572;28;20468;-69
2021/08/11 06:52:04;;;;;;;11.95;5.80;;;27.40;99.90;;;;;;5012537;28;20026;-70
2021/08/11 06:54:29;;;;;;;13.30;6.75;;;27.30;99.90;;;;;;5027080;28;20101;-70
2021/08/11 06:57:17;;;;;;;13.77;7.47;;;27.40;99.90;;;;;;5030821;28;20029;-70
2021/08/11 06:59:58;;;;;;;9.27;6.53;;;27.30;99.90;;;;;;5026418;28;20159;-69
2021/08/11 07:02:37;;;;;;;11.85;7.75;;;27.30;99.90;;;;;;5035308;28;20113;-69
2021/08/11 07:08:35;;;;;;;16.15;7.57;;;27.50;99.90;;;;;;5014262;28;20046;-70
2021/08/11 07:11:10;;;;;;;10.45;7.20;;;27.70;99.90;;;;;;5014876;28;20030;-70
2021/08/11 07:13:51;;;;;;;10.23;7.40;;;27.80;99.90;;;;;;5014487;28;20022;-70
2021/08/11 07:16:47;;;;;;;11.27;7.32;;;28.00;99.90;;;;;;5027442;28;20475;-69
2021/08/11 07:19:24;;;;;;;13.10;6.70;;;28.10;99.90;;;;;;5034944;28;20142;-70
2021/08/11 07:22:04;;;;;;;10.23;6.82;;;28.30;99.90;;;;;;5033568;28;20038;-70
2021/08/11 07:24:31;;;;;;;6.78;6.07;;;28.50;99.90;;;;;;5032699;28;20021;-69
2021/08/11 07:26:57;;;;;;;8.90;6.63;;;28.60;99.90;;;;;;5033222;28;20241;-69
2021/08/11 07:29:23;;;;;;;10.30;7.15;;;28.70;99.90;;;;;;5031966;28;20050;-68
2021/08/11 07:31:49;;;;;;;8.02;7.15;;;28.70;99.90;;;;;;5032260;28;20063;-69
2021/08/11 07:34:16;;;;;;;6.53;5.93;;;28.80;99.90;;;;;;5032313;28;20071;-69
2021/08/11 07:36:42;;;;;;;8.93;6.50;;;28.80;99.90;;;;;;5032825;28;20049;-69
2021/08/11 07:39:07;;;;;;;15.82;7.30;;;28.90;99.90;;;;;;5031355;28;20044;-69
2021/08/11 07:41:33;;;;;;;10.25;6.65;;;29.10;99.90;;;;;;5032845;28;20032;-69
2021/08/11 07:43:59;;;;;;;10.80;6.40;;;29.10;99.90;;;;;;5030791;28;20033;-70
2021/08/11 07:46:26;;;;;;;12.43;7.47;;;29.20;99.90;;;;;;5032009;28;20108;-70
2021/08/11 07:48:52;;;;;;;9.25;6.95;;;29.30;99.90;;;;;;5030337;28;20472;-70
2021/08/11 07:51:18;;;;;;;7.57;5.88;;;29.30;99.90;;;;;;5031960;28;20032;-70
2021/08/11 07:53:43;;;;;;;7.78;6.93;;;29.10;99.90;;;;;;5032242;28;20022;-70
2021/08/11 07:56:09;;;;;;;18.85;7.82;;;29.20;99.90;;;;;;5029656;28;20025;-70
2021/08/11 07:58:35;;;;;;;8.70;6.18;;;29.30;99.90;;;;;;5031514;28;20018;-70
2021/08/11 08:01:01;;;;;;;10.07;7.57;;;29.30;99.90;;;;;;5032358;28;20472;-70
2021/08/11 08:03:27;;;;;;;10.75;7.00;;;29.40;99.90;;;;;;5031339;28;20107;-70
2021/08/11 08:05:52;;;;;;;9.32;6.72;;;29.60;99.90;;;;;;5031397;28;20018;-70
2021/08/11 08:08:18;;;;;;;13.50;6.55;;;29.70;99.90;;;;;;5030064;28;20104;-70
2021/08/11 08:10:44;;;;;;;9.45;6.80;;;29.60;99.90;;;;;;5030202;28;20091;-70
2021/08/11 08:13:10;;;;;;;17.77;7.18;;;29.60;99.90;;;;;;5030025;28;20129;-70
2021/08/11 08:15:41;;;;;;;10.80;7.85;;;29.50;99.90;;;;;;5030777;28;20385;-70
2021/08/11 08:18:07;;;;;;;6.88;6.13;;;29.60;99.90;;;;;;5026593;28;20436;-69
2021/08/11 08:20:34;;;;;;;8.45;7.15;;;29.60;99.90;;;;;;5012045;28;20120;-69
2021/08/11 08:23:00;;;;;;;7.68;6.20;;;29.70;99.90;;;;;;5009910;28;20040;-69
2021/08/11 08:25:26;;;;;;;10.82;7.20;;;29.80;99.90;;;;;;5011580;28;20064;-69
2021/08/11 08:27:53;;;;;;;8.05;7.07;;;29.80;99.90;;;;;;5011982;28;20022;-69
2021/08/11 08:30:19;;;;;;;10.07;6.10;;;29.90;99.90;;;;;;5011866;28;20061;-68
2021/08/11 08:32:46;;;;;;;12.65;6.65;;;29.90;99.90;;;;;;5011430;28;20068;-69
2021/08/11 08:35:12;;;;;;;11.15;7.82;;;29.90;99.90;;;;;;5014322;28;20030;-69
2021/08/11 08:37:39;;;;;;;11.10;7.43;;;30.00;99.90;;;;;;5011942;28;20030;-69
2021/08/11 08:40:11;;;;;;;9.98;7.47;;;30.10;99.90;;;;;;5010419;28;20117;-69
2021/08/11 08:42:38;;;;;;;14.90;7.72;;;30.00;99.90;;;;;;5012079;28;20551;-71
2021/08/11 08:45:05;;;;;;;10.52;7.55;;;29.80;99.90;;;;;;5011603;28;20419;-70
2021/08/11 08:47:32;;;;;;;11.23;8.63;;;29.60;99.90;;;;;;5010664;28;20022;-70
2021/08/11 08:50:00;;;;;;;12.63;8.43;;;29.50;99.90;;;;;;5011957;28;20101;-70
2021/08/11 08:52:27;;;;;;;11.60;7.03;;;29.50;99.90;;;;;;5015162;28;20080;-70
2021/08/11 08:54:57;;;;;;;11.65;7.78;;;29.60;99.90;;;;;;5011689;28;20030;-70
2021/08/11 08:57:23;;;;;;;9.07;6.97;;;29.70;99.90;;;;;;5011602;28;20153;-70
2021/08/11 08:59:49;;;;;;;10.30;7.13;;;29.70;99.90;;;;;;5011622;28;20080;-69
2021/08/11 09:02:16;;;;;;;8.70;7.60;;;29.80;99.90;;;;;;5011664;28;20030;-71
2021/08/11 09:04:42;;;;;;;8.45;7.60;;;29.80;99.90;;;;;;5016836;28;20037;-70
2021/08/11 09:07:18;;;;;;;19.70;9.95;;;29.80;99.90;;;;;;5018520;28;20025;-72
2021/08/11 09:09:44;;;;;;;14.25;7.90;;;29.80;99.90;;;;;;5017833;28;20308;-70
2021/08/11 09:12:13;;;;;;;9.90;8.45;;;29.70;99.90;;;;;;5017313;28;20120;-70
2021/08/11 09:14:44;;;;;;;8.30;7.50;;;29.60;99.90;;;;;;5019718;28;20049;-70
2021/08/11 09:17:11;;;;;;;12.23;8.38;;;29.50;99.90;;;;;;5018666;28;20030;-70
2021/08/11 09:19:45;;;;;;;11.20;8.10;;;29.60;99.90;;;;;;5018642;28;20480;-70
2021/08/11 09:22:16;;;;;;;12.38;8.32;;;29.60;99.90;;;;;;5024144;28;20060;-72
2021/08/11 09:24:42;;;;;;;16.60;9.03;;;29.60;99.90;;;;;;5021839;28;20093;-71
2021/08/11 09:27:41;;;;;;;19.23;10.85;;;29.70;99.90;;;;;;5018350;28;20026;-71
2021/08/11 09:30:11;;;;;;;11.63;9.32;;;29.80;99.90;;;;;;5036101;28;20506;-71
2021/08/11 09:32:52;;;;;;;12.70;8.98;;;29.80;99.90;;;;;;5036264;28;20080;-71
2021/08/11 09:35:20;;;;;;;8.75;8.05;;;29.80;99.90;;;;;;5039059;28;20026;-70
2021/08/11 09:37:48;;;;;;;10.80;8.23;;;29.80;99.90;;;;;;5037617;28;20029;-69
2021/08/11 09:40:18;;;;;;;9.88;8.05;;;29.80;99.90;;;;;;5028499;28;20121;-70
2021/08/11 09:42:45;;;;;;;13.27;7.03;;;29.90;99.90;;;;;;5016655;28;20626;-70
2021/08/11 09:45:12;;;;;;;11.45;7.28;;;29.90;99.90;;;;;;5017314;28;20029;-71
2021/08/11 09:47:52;;;;;;;7.45;6.63;;;30.10;99.90;;;;;;5017360;28;20438;-72
2021/08/11 09:50:18;;;;;;;11.43;7.75;;;30.10;99.90;;;;;;5019106;28;20117;-71
2021/08/11 09:52:48;;;;;;;8.90;7.65;;;30.20;99.90;;;;;;5017712;28;20445;-69
2021/08/11 09:55:15;;;;;;;8.88;7.72;;;30.30;99.90;;;;;;5018126;28;20105;-71
2021/08/11 09:57:41;;;;;;;8.02;7.18;;;30.40;99.90;;;;;;5017961;28;20030;-71
2021/08/11 10:00:08;;;;;;;8.30;7.50;;;30.40;99.90;;;;;;5017676;28;20037;-71
2021/08/11 10:02:36;;;;;;;9.27;7.60;;;30.40;99.90;;;;;;5017431;28;20208;-71
2021/08/11 10:05:02;;;;;;;11.30;6.15;;;30.50;99.90;;;;;;5017440;28;20018;-71
2021/08/11 10:07:28;;;;;;;24.02;7.43;;;30.60;99.90;;;;;;5017499;28;20029;-69
2021/08/11 10:10:07;;;;;;;12.38;7.63;;;30.60;99.90;;;;;;5017419;28;20026;-71
2021/08/11 10:12:35;;;;;;;10.77;6.97;;;30.70;99.90;;;;;;5018148;28;20109;-69
2021/08/11 10:15:06;;;;;;;12.75;7.45;;;30.70;99.90;;;;;;5020188;28;20037;-69
2021/08/11 10:17:36;;;;;;;;;;;30.70;99.90;;;;;;5034629;28;20304;-70
2021/08/11 10:20:07;;;;;;;7.45;6.72;;;30.70;99.90;;;;;;5039426;28;19905;-71
2021/08/11 10:22:33;;;;;;;8.10;7.32;;;30.70;99.90;;;;;;5041112;28;20079;-71
2021/08/11 10:25:00;;;;;;;7.68;6.93;;;30.80;99.90;;;;;;5040519;28;20152;-70
2021/08/11 10:27:27;;;;;;;9.20;7.55;;;30.70;99.90;;;;;;5042337;28;20022;-70
2021/08/11 10:29:54;;;;;;;11.23;7.50;;;30.80;99.90;;;;;;5043063;28;20404;-69
2021/08/11 10:32:21;;;;;;;9.27;8.05;;;30.70;99.90;;;;;;5042116;28;20085;-71
2021/08/11 10:34:48;;;;;;;7.45;6.70;;;30.80;99.90;;;;;;5039372;28;20025;-71
2021/08/11 10:37:13;;;;;;;13.45;7.00;;;30.80;99.90;;;;;;5041043;28;20025;-70
2021/08/11 10:39:40;;;;;;;11.23;7.50;;;30.80;99.90;;;;;;5038476;28;20483;-70
2021/08/11 10:42:12;;;;;;;9.02;7.88;;;30.80;99.90;;;;;;5037923;28;20032;-71
2021/08/11 10:44:38;;;;;;;11.43;7.43;;;30.90;99.90;;;;;;5039499;28;20037;-70
2021/08/11 10:47:06;;;;;;;9.93;7.43;;;30.90;99.90;;;;;;5038552;28;20472;-69
2021/08/11 10:49:57;;;;;;;8.40;7.47;;;31.00;99.90;;;;;;5040235;28;20044;-70
2021/08/11 10:52:23;;;;;;;10.00;8.30;;;30.90;99.90;;;;;;5041205;28;20092;-71
2021/08/11 10:54:56;;;;;;;9.38;7.20;;;30.90;99.90;;;;;;5039927;28;20030;-71
2021/08/11 10:57:34;;;;;;;10.70;7.25;;;31.00;99.90;;;;;;5036668;28;20227;-71
2021/08/11 11:00:22;;;;;;;8.27;7.13;;;31.00;99.90;;;;;;5023055;28;20029;-71
2021/08/11 11:02:52;;;;;;;11.48;6.50;;;31.10;99.90;;;;;;5024410;28;20030;-70
2021/08/11 11:05:21;;;;;;;8.23;7.40;;;31.10;99.90;;;;;;5038622;28;20022;-70
2021/08/11 11:08:13;;;;;;;6.88;6.22;;;31.10;99.90;;;;;;5038608;28;20032;-73
2021/08/11 11:10:41;;;;;;;10.38;8.05;;;31.20;99.90;;;;;;5040774;28;20167;-71
2021/08/11 11:13:33;;;;;;;9.00;6.78;;;31.30;99.90;;;;;;5040606;28;20028;-71
2021/08/11 11:16:03;;;;;;;10.27;6.43;;;31.40;99.90;;;;;;5038966;28;20030;-71
2021/08/11 11:18:29;;;;;;;12.43;6.72;;;31.40;99.90;;;;;;5028646;28;20053;-71
2021/08/11 11:20:58;;;;;;;8.43;6.00;;;31.40;99.90;;;;;;5025104;28;20030;-71
2021/08/11 11:23:40;;;;;;;9.18;6.45;;;31.40;99.90;;;;;;5035893;28;20017;-69
2021/08/11 11:26:12;;;;;;;12.07;6.68;;;31.30;99.90;;;;;;5035541;28;20029;-70
2021/08/11 11:29:05;;;;;;;9.50;7.22;;;31.50;99.90;;;;;;5033735;28;20032;-72
2021/08/11 11:31:55;;;;;;;6.90;5.57;;;31.60;99.90;;;;;;5034608;28;20483;-69
2021/08/11 11:34:33;;;;;;;15.77;6.32;;;31.60;99.90;;;;;;5034699;28;20163;-69
2021/08/11 11:36:59;;;;;;;19.00;6.35;;;31.70;99.90;;;;;;5034132;28;20492;-71
2021/08/11 11:39:27;;;;;;;8.68;6.45;;;31.70;99.90;;;;;;5034140;28;20041;-72
2021/08/11 11:42:26;;;;;;;7.30;6.30;;;31.70;99.90;;;;;;5034914;28;20490;-70
2021/08/11 11:44:57;;;;;;;6.15;5.53;;;31.80;99.90;;;;;;5028837;28;20066;-72
2021/08/11 11:47:53;;;;;;;13.90;6.57;;;31.70;99.90;;;;;;5034362;28;20106;-71
2021/08/11 11:50:21;;;;;;;12.43;5.70;;;31.80;99.90;;;;;;5029862;28;20033;-70
2021/08/11 11:52:58;;;;;;;10.20;6.13;;;32.00;99.90;;;;;;5034049;28;20040;-70
2021/08/11 11:55:29;;;;;;;10.85;6.45;;;31.90;99.90;;;;;;5034282;28;20499;-70
2021/08/11 11:57:56;;;;;;;12.07;5.80;;;31.70;99.90;;;;;;5033312;28;20040;-70
2021/08/11 12:00:22;;;;;;;9.43;7.15;;;31.90;99.90;;;;;;5031941;28;20108;-69
2021/08/11 12:02:52;;;;;;;7.18;6.47;;;32.00;99.90;;;;;;5033211;28;20084;-73
2021/08/11 12:05:18;;;;;;;11.75;5.93;;;32.00;99.90;;;;;;5032733;28;20018;-71
2021/08/11 12:07:44;;;;;;;9.80;5.90;;;32.00;99.90;;;;;;5033004;28;20100;-70
2021/08/11 12:10:20;;;;;;;9.32;7.20;;;32.00;99.90;;;;;;5031659;28;20104;-70
2021/08/11 12:13:00;;;;;;;8.30;5.95;;;32.00;99.90;;;;;;5031465;28;20030;-68
2021/08/11 12:15:29;;;;;;;10.75;6.18;;;31.90;99.90;;;;;;5031604;28;20456;-71
2021/08/11 12:17:59;;;;;;;12.00;6.22;;;31.80;99.90;;;;;;5032642;28;20443;-69
2021/08/11 12:20:27;;;;;;;9.25;7.03;;;31.80;99.90;;;;;;5032427;28;20456;-70
2021/08/11 12:22:53;;;;;;;12.02;6.80;;;31.90;99.90;;;;;;5032768;28;20025;-72
2021/08/11 12:25:27;;;;;;;8.63;6.60;;;32.10;99.90;;;;;;5033740;28;20028;-71
2021/08/11 12:28:21;;;;;;;10.57;6.68;;;32.20;99.90;;;;;;5031629;28;20560;-71
2021/08/11 12:30:52;;;;;;;9.88;6.22;;;32.20;99.90;;;;;;5033324;28;20047;-71
2021/08/11 12:33:20;;;;;;;7.93;6.47;;;32.20;99.90;;;;;;5033632;28;20445;-71
2021/08/11 12:35:46;;;;;;;10.98;7.38;;;32.20;99.90;;;;;;5033220;28;20260;-72
2021/08/11 12:38:23;;;;;;;8.50;5.97;;;32.20;99.90;;;;;;5031655;28;20260;-70
2021/08/11 12:40:49;;;;;;;6.68;6.15;;;32.20;99.90;;;;;;5031292;28;20076;-72
2021/08/11 12:43:15;;;;;;;7.18;6.40;;;32.10;99.90;;;;;;5032227;28;20065;-70
2021/08/11 12:45:50;;;;;;;7.75;6.25;;;32.10;99.90;;;;;;5032649;28;20059;-69
2021/08/11 12:48:28;;;;;;;5.65;5.05;;;32.00;99.90;;;;;;5030619;28;20045;-70
2021/08/11 12:50:56;;;;;;;9.10;6.25;;;31.90;99.90;;;;;;5030990;28;20014;-70
2021/08/11 12:53:36;;;;;;;6.95;6.00;;;31.90;99.90;;;;;;5032052;28;20391;-70
2021/08/11 12:56:07;;;;;;;16.92;6.80;;;31.80;99.90;;;;;;5031105;28;20025;-70